createdAt,value
2022-11-29T00:00:47.083Z,3.63
2022-11-29T00:02:47.191Z,3.7
2022-11-29T00:04:47.059Z,3.78
2022-11-29T00:06:47.066Z,3.87
2022-11-29T00:08:47.091Z,3.54
2022-11-29T00:12:17.246Z,3.51
2022-11-29T00:14:17.238Z,3.5
2022-11-29T00:16:17.353Z,3.39
2022-11-29T00:18:17.271Z,3.41
2022-11-29T00:20:17.235Z,3.55
2022-11-29T00:22:17.249Z,3.46
2022-11-29T00:24:17.251Z,3.59
2022-11-29T00:27:35.456Z,3.69
2022-11-29T00:29:35.405Z,3.65
2022-11-29T00:31:35.404Z,3.65
2022-11-29T00:33:35.428Z,3.77
2022-11-29T00:35:35.402Z,3.66
2022-11-29T00:37:35.390Z,3.64
2022-11-29T00:39:35.450Z,3.39
2022-11-29T00:43:01.232Z,3.45
2022-11-29T00:45:01.270Z,3.42
2022-11-29T00:47:01.205Z,3.48
2022-11-29T00:49:01.265Z,3.24
2022-11-29T00:51:01.216Z,3.23
2022-11-29T00:53:01.217Z,3.36
2022-11-29T00:55:01.220Z,3.31
2022-11-29T00:58:12.341Z,3.29
2022-11-29T01:00:12.372Z,3.28
2022-11-29T01:02:12.622Z,3.35
2022-11-29T01:04:12.570Z,3.44
2022-11-29T01:06:12.391Z,3.57
2022-11-29T01:08:12.444Z,3.64
2022-11-29T01:10:12.630Z,3.36
2022-11-29T01:13:23.080Z,3.43
2022-11-29T01:15:23.086Z,3.45
2022-11-29T01:17:23.099Z,3.62
2022-11-29T01:19:23.065Z,3.62
2022-11-29T01:21:23.100Z,3.58
2022-11-29T01:23:23.093Z,3.46
2022-11-29T01:25:23.115Z,3.46
2022-11-29T01:28:26.474Z,3.46
2022-11-29T01:30:26.394Z,3.18
2022-11-29T01:32:26.335Z,3.18
2022-11-29T01:34:26.413Z,3.4
2022-11-29T01:36:26.339Z,3.26
2022-11-29T01:38:26.300Z,3.34
2022-11-29T01:40:26.329Z,3.38
2022-11-29T01:42:50.417Z,3.45
2022-11-29T01:44:50.380Z,3.44
2022-11-29T01:46:50.369Z,3.44
2022-11-29T01:48:50.386Z,3.47
2022-11-29T01:50:50.396Z,3.37
2022-11-29T01:52:50.361Z,3.47
2022-11-29T01:54:50.378Z,3.45
2022-11-29T01:56:50.398Z,3.45
2022-11-29T01:58:40.397Z,3.47
2022-11-29T02:00:40.430Z,3.44
2022-11-29T02:02:40.439Z,3.26
2022-11-29T02:04:40.461Z,3.2
2022-11-29T02:06:40.386Z,3.34
2022-11-29T02:08:40.386Z,3.39
2022-11-29T02:10:40.429Z,3.55
2022-11-29T02:13:46.956Z,3.42
2022-11-29T02:15:47.005Z,3.47
2022-11-29T02:17:46.983Z,3.48
2022-11-29T02:19:46.919Z,3.56
2022-11-29T02:21:46.966Z,3.5
2022-11-29T02:23:46.920Z,3.43
2022-11-29T02:25:46.910Z,3.28
2022-11-29T02:28:46.500Z,3.31
2022-11-29T02:30:46.498Z,3.35
2022-11-29T02:32:46.511Z,3.53
2022-11-29T02:34:47.077Z,3.53
2022-11-29T02:36:46.745Z,3.68
2022-11-29T02:38:46.652Z,3.68
2022-11-29T02:40:46.649Z,3.59
2022-11-29T02:43:28.840Z,3.55
2022-11-29T02:45:28.839Z,3.37
2022-11-29T02:47:28.891Z,3.48
2022-11-29T02:49:28.829Z,3.4
2022-11-29T02:51:28.871Z,3.42
2022-11-29T02:53:28.865Z,3.42
2022-11-29T02:55:28.850Z,3.45
2022-11-29T02:57:28.850Z,3.36
2022-11-29T02:58:52.792Z,3.3
2022-11-29T03:00:52.775Z,3.37
2022-11-29T03:02:52.882Z,3.33
2022-11-29T03:04:52.812Z,3.4
2022-11-29T03:06:52.776Z,3.36
2022-11-29T03:08:52.806Z,3.29
2022-11-29T03:10:52.781Z,3.18
2022-11-29T03:14:14.029Z,3.36
2022-11-29T03:16:14.073Z,3.5
2022-11-29T03:18:14.045Z,3.37
2022-11-29T03:20:13.993Z,3.32
2022-11-29T03:22:13.994Z,3.37
2022-11-29T03:24:14.239Z,3.44
2022-11-29T03:26:14.197Z,3.52
2022-11-29T03:29:50.865Z,3.44
2022-11-29T03:31:50.825Z,3.63
2022-11-29T03:33:50.867Z,3.52
2022-11-29T03:35:50.838Z,3.43
2022-11-29T03:37:50.835Z,3.41
2022-11-29T03:39:50.856Z,3.35
2022-11-29T03:41:50.830Z,3.44
2022-11-29T03:44:48.490Z,3.28
2022-11-29T03:46:48.505Z,3.35
2022-11-29T03:48:48.384Z,3.4
2022-11-29T03:50:48.419Z,3.48
2022-11-29T03:52:48.334Z,3.53
2022-11-29T03:54:48.339Z,3.54
2022-11-29T03:56:48.358Z,3.56
2022-11-29T03:59:29.898Z,3.52
2022-11-29T04:01:29.991Z,3.31
2022-11-29T04:03:29.864Z,3.23
2022-11-29T04:05:29.878Z,3.2
2022-11-29T04:07:29.946Z,3.16
2022-11-29T04:09:29.896Z,3.19
2022-11-29T04:11:29.862Z,3.22
2022-11-29T04:14:51.096Z,3.39
2022-11-29T04:16:51.106Z,3.35
2022-11-29T04:18:51.048Z,3.39
2022-11-29T04:20:51.087Z,3.42
2022-11-29T04:22:51.094Z,3.31
2022-11-29T04:24:51.099Z,3.26
2022-11-29T04:26:51.064Z,3.33
2022-11-29T04:29:55.468Z,3.42
2022-11-29T04:31:55.448Z,3.37
2022-11-29T04:33:55.505Z,3.29
2022-11-29T04:35:55.435Z,3.41
2022-11-29T04:37:55.601Z,3.43
2022-11-29T04:39:55.452Z,3.38
2022-11-29T04:41:55.457Z,3.45
2022-11-29T04:45:09.184Z,3.46
2022-11-29T04:47:09.112Z,3.43
2022-11-29T04:49:09.117Z,3.4
2022-11-29T04:51:09.152Z,3.46
2022-11-29T04:53:09.140Z,3.38
2022-11-29T04:55:09.105Z,3.46
2022-11-29T04:57:09.140Z,3.41
2022-11-29T05:00:16.530Z,3.25
2022-11-29T05:02:16.570Z,3.39
2022-11-29T05:04:16.507Z,3.42
2022-11-29T05:06:16.520Z,3.44
2022-11-29T05:08:16.557Z,3.36
2022-11-29T05:10:16.511Z,3.45
2022-11-29T05:12:16.551Z,3.37
2022-11-29T05:15:41.920Z,3.54
2022-11-29T05:17:41.915Z,3.55
2022-11-29T05:19:41.889Z,3.42
2022-11-29T05:21:41.959Z,3.42
2022-11-29T05:23:41.908Z,3.42
2022-11-29T05:25:41.875Z,3.41
2022-11-29T05:27:42.257Z,3.32
2022-11-29T05:30:48.532Z,3.33
2022-11-29T05:32:48.509Z,3.34
2022-11-29T05:34:48.712Z,3.41
2022-11-29T05:36:48.591Z,3.49
2022-11-29T05:38:48.619Z,3.61
2022-11-29T05:40:48.452Z,3.65
2022-11-29T05:42:48.501Z,3.59
2022-11-29T05:46:05.012Z,3.64
2022-11-29T05:48:04.989Z,3.54
2022-11-29T05:50:04.998Z,3.68
2022-11-29T05:52:05.025Z,3.89
2022-11-29T05:54:05.066Z,3.82
2022-11-29T05:56:04.965Z,3.71
2022-11-29T05:58:04.975Z,3.75
2022-11-29T06:01:01.296Z,3.73
2022-11-29T06:03:01.347Z,3.69
2022-11-29T06:05:01.318Z,3.75
2022-11-29T06:07:01.308Z,3.86
2022-11-29T06:09:01.402Z,3.91
2022-11-29T06:11:01.329Z,3.88
2022-11-29T06:13:01.303Z,3.91
2022-11-29T06:16:06.900Z,3.83
2022-11-29T06:18:06.836Z,3.95
2022-11-29T06:20:06.883Z,3.85
2022-11-29T06:22:06.840Z,3.67
2022-11-29T06:24:06.866Z,3.62
2022-11-29T06:26:06.859Z,3.61
2022-11-29T06:28:06.871Z,3.55
2022-11-29T06:31:32.455Z,3.61
2022-11-29T06:33:32.427Z,3.59
2022-11-29T06:35:32.375Z,3.65
2022-11-29T06:37:32.365Z,3.65
2022-11-29T06:39:32.359Z,3.61
2022-11-29T06:41:32.441Z,3.65
2022-11-29T06:43:32.386Z,3.57
2022-11-29T06:47:10.374Z,3.57
2022-11-29T06:49:10.334Z,3.56
2022-11-29T06:51:10.386Z,3.78
2022-11-29T06:53:10.333Z,3.67
2022-11-29T06:55:10.328Z,3.82
2022-11-29T06:57:10.387Z,3.87
2022-11-29T06:59:10.322Z,3.89
2022-11-29T07:02:00.657Z,3.9
2022-11-29T07:04:00.501Z,3.94
2022-11-29T07:06:00.591Z,3.97
2022-11-29T07:08:00.524Z,4.08
2022-11-29T07:10:00.511Z,4.12
2022-11-29T07:12:00.445Z,3.98
2022-11-29T07:14:00.474Z,4
2022-11-29T07:17:16.727Z,4.06
2022-11-29T07:19:16.673Z,4.09
2022-11-29T07:21:16.710Z,4.13
2022-11-29T07:23:16.714Z,4.32
2022-11-29T07:25:16.734Z,3.99
2022-11-29T07:27:16.747Z,4.13
2022-11-29T07:29:16.688Z,4.23
2022-11-29T07:32:33.647Z,4.35
2022-11-29T07:34:33.714Z,4.3
2022-11-29T07:36:33.586Z,4.21
2022-11-29T07:38:33.679Z,4.33
2022-11-29T07:40:37.507Z,4.54
2022-11-29T07:42:33.632Z,4.51
2022-11-29T07:44:33.593Z,4.52
2022-11-29T07:47:21.559Z,4.59
2022-11-29T07:49:21.537Z,4.43
2022-11-29T07:51:21.540Z,4.53
2022-11-29T07:53:21.555Z,4.56
2022-11-29T07:55:21.522Z,4.61
2022-11-29T07:57:21.527Z,4.6
2022-11-29T07:59:21.536Z,4.65
2022-11-29T08:02:49.579Z,4.72
2022-11-29T08:04:49.538Z,4.47
2022-11-29T08:06:49.557Z,4.74
2022-11-29T08:08:49.526Z,4.82
2022-11-29T08:10:49.573Z,4.89
2022-11-29T08:12:49.491Z,4.85
2022-11-29T08:14:49.487Z,4.62
2022-11-29T08:17:15.165Z,4.79
2022-11-29T08:19:15.159Z,4.86
2022-11-29T08:21:15.117Z,4.81
2022-11-29T08:23:15.171Z,4.94
2022-11-29T08:25:15.121Z,4.73
2022-11-29T08:27:15.133Z,4.67
2022-11-29T08:29:15.128Z,4.8
2022-11-29T08:31:15.166Z,4.92
2022-11-29T08:32:51.509Z,4.91
2022-11-29T08:34:49.807Z,4.94
2022-11-29T08:36:49.810Z,5
2022-11-29T08:38:51.776Z,5.04
2022-11-29T08:40:49.769Z,5.1
2022-11-29T08:42:49.781Z,4.85
2022-11-29T08:44:49.834Z,5.18
2022-11-29T08:47:46.168Z,5.43
2022-11-29T08:49:46.124Z,5.55
2022-11-29T08:51:46.226Z,5.59
2022-11-29T08:53:46.124Z,5.62
2022-11-29T08:55:46.106Z,5.61
2022-11-29T08:57:46.169Z,5.55
2022-11-29T08:59:46.070Z,5.45
2022-11-29T09:03:34.634Z,5.61
2022-11-29T09:05:34.648Z,5.5
2022-11-29T09:07:35.293Z,5.67
2022-11-29T09:09:34.626Z,5.67
2022-11-29T09:11:34.654Z,5.34
2022-11-29T09:13:34.638Z,5.21
2022-11-29T09:15:34.625Z,5.49
2022-11-29T09:18:10.047Z,5.56
2022-11-29T09:20:10.014Z,5.51
2022-11-29T09:22:10.000Z,5.74
2022-11-29T09:24:10.284Z,5.99
2022-11-29T09:26:10.035Z,5.72
2022-11-29T09:28:10.009Z,5.83
2022-11-29T09:30:10.063Z,6.06
2022-11-29T09:32:58.914Z,6.1
2022-11-29T09:34:58.887Z,6.21
2022-11-29T09:36:58.881Z,6.23
2022-11-29T09:38:58.902Z,6.32
2022-11-29T09:40:59.907Z,6.4
2022-11-29T09:42:58.891Z,6.36
2022-11-29T11:05:20.337Z,6.66
2022-11-29T11:07:20.463Z,6.6
2022-11-29T11:09:20.278Z,6.56
2022-11-29T11:11:20.374Z,6.73
2022-11-29T16:01:05.770Z,5.78
2022-11-29T16:12:21.338Z,5.72
2022-11-29T16:14:21.497Z,5.63
2022-11-29T16:16:21.440Z,5.61
2022-11-29T16:18:21.356Z,5.5
2022-11-29T16:20:21.381Z,5.21
2022-11-29T16:22:21.358Z,5.54
2022-11-29T16:25:04.837Z,5.7
2022-11-29T16:27:04.853Z,5.61
2022-11-29T16:29:04.823Z,5.63
2022-11-29T16:31:04.881Z,5.62
2022-11-29T16:33:04.833Z,5.58
2022-11-29T16:35:04.836Z,5.55
2022-11-29T16:37:04.831Z,5.58
2022-11-29T16:40:17.608Z,5.51
2022-11-29T16:42:23.565Z,5.48
2022-11-29T16:44:17.590Z,5.55
2022-11-29T16:46:17.630Z,5.48
2022-11-29T16:48:17.637Z,5.63
2022-11-29T16:50:17.610Z,5.83
2022-11-29T16:52:17.632Z,5.69
2022-11-29T16:55:31.265Z,5.73
2022-11-29T16:57:31.291Z,5.67
2022-11-29T16:59:31.261Z,5.59
2022-11-29T17:01:31.413Z,5.61
2022-11-29T17:03:31.323Z,5.23
2022-11-29T17:05:31.315Z,5.28
2022-11-29T17:07:31.466Z,5.43
2022-11-29T17:11:08.313Z,5.62
2022-11-29T17:13:08.266Z,5.63
2022-11-29T17:15:08.342Z,5.58
2022-11-29T17:17:08.279Z,5.64
2022-11-29T17:19:08.315Z,5.7
2022-11-29T17:21:08.314Z,5.55
2022-11-29T17:23:08.279Z,5.39
2022-11-29T17:26:23.382Z,5.56
2022-11-29T17:28:23.194Z,5.57
2022-11-29T17:30:23.215Z,5.58
2022-11-29T17:32:26.602Z,5.72
2022-11-29T17:34:23.309Z,5.75
2022-11-29T17:36:23.192Z,5.52
2022-11-29T17:38:23.204Z,5.57
2022-11-29T17:41:16.124Z,5.52
2022-11-29T17:43:16.071Z,5.41
2022-11-29T17:45:16.095Z,5.41
2022-11-29T17:47:16.028Z,5.32
2022-11-29T17:49:16.033Z,5.13
2022-11-29T17:51:43.506Z,5.06
2022-11-29T17:53:16.031Z,4.88
2022-11-29T17:56:24.972Z,4.99
2022-11-29T17:58:24.914Z,5.04
2022-11-29T18:00:24.936Z,5.12
2022-11-29T18:02:25.054Z,5.2
2022-11-29T18:04:25.054Z,5.14
2022-11-29T18:06:25.172Z,5.15
2022-11-29T18:08:25.159Z,5.11
2022-11-29T18:11:08.347Z,5.04
2022-11-29T18:13:08.325Z,5.04
2022-11-29T18:15:08.299Z,5.17
2022-11-29T18:17:08.363Z,5.28
2022-11-29T18:19:08.306Z,5.35
2022-11-29T18:21:08.410Z,5.43
2022-11-29T18:23:08.379Z,5.43
2022-11-29T18:26:11.673Z,5.39
2022-11-29T18:28:11.582Z,5.34
2022-11-29T18:30:11.587Z,5.45
2022-11-29T18:32:11.670Z,5.5
2022-11-29T18:34:11.625Z,5.45
2022-11-29T18:36:11.778Z,4.21
2022-11-29T18:38:16.207Z,4.36
2022-11-29T18:40:11.856Z,4.84
2022-11-29T18:41:16.917Z,4.99
2022-11-29T18:43:17.111Z,5.15
2022-11-29T18:45:17.111Z,5.21
2022-11-29T18:47:17.139Z,5.27
2022-11-29T18:49:16.992Z,5.25
2022-11-29T18:51:17.155Z,5.23
2022-11-29T18:53:17.093Z,5.21
2022-11-29T18:55:17.214Z,5.08
2022-11-29T18:56:40.766Z,4.99
2022-11-29T18:58:40.845Z,5.1
2022-11-29T19:00:40.781Z,5.21
2022-11-29T19:02:40.848Z,5.26
2022-11-29T19:04:40.826Z,5.33
2022-11-29T19:06:40.767Z,5.4
2022-11-29T19:08:40.798Z,5.2
2022-11-29T19:12:35.174Z,5.29
2022-11-29T19:14:35.208Z,5.27
2022-11-29T19:16:35.482Z,5.28
2022-11-29T19:18:35.171Z,5.25
2022-11-29T19:20:35.213Z,5.27
2022-11-29T19:22:35.165Z,5.2
2022-11-29T19:24:35.276Z,5.08
2022-11-29T19:27:14.211Z,5.12
2022-11-29T19:29:14.380Z,5.19
2022-11-29T19:31:14.225Z,5.25
2022-11-29T19:33:14.384Z,5.27
2022-11-29T19:35:14.310Z,5.28
2022-11-29T19:37:14.361Z,5.06
2022-11-29T19:39:14.514Z,5.18
2022-11-29T19:42:30.907Z,5.26
2022-11-29T19:44:35.863Z,5.46
2022-11-29T19:46:30.893Z,5.34
2022-11-29T19:48:30.887Z,5.37
2022-11-29T19:50:31.221Z,5.4
2022-11-29T19:52:30.849Z,5.35
2022-11-29T19:54:30.959Z,5.34
2022-11-29T19:57:46.673Z,5.36
2022-11-29T19:59:46.778Z,5.32
2022-11-29T20:01:46.582Z,5.3
2022-11-29T20:03:46.638Z,5.23
2022-11-29T20:05:46.586Z,5.27
2022-11-29T20:07:46.729Z,5.33
2022-11-29T20:09:46.743Z,5
2022-11-29T20:12:22.949Z,5.11
2022-11-29T20:14:22.354Z,5.03
2022-11-29T20:16:22.409Z,5.21
2022-11-29T20:18:22.280Z,5.28
2022-11-29T20:20:22.411Z,5.23
2022-11-29T20:22:22.287Z,5.26
2022-11-29T20:24:22.299Z,5.34
2022-11-29T20:26:22.294Z,5.29
2022-11-29T20:28:16.434Z,5.29
2022-11-29T20:30:16.444Z,4.95
2022-11-29T20:32:16.157Z,5.04
2022-11-29T20:34:16.354Z,5
2022-11-29T20:36:16.185Z,5.12
2022-11-29T20:38:16.170Z,4.88
2022-11-29T20:40:16.170Z,4.79
2022-11-29T20:42:57.434Z,5.06
2022-11-29T20:44:57.375Z,5.25
2022-11-29T20:46:57.379Z,5.32
2022-11-29T20:49:00.463Z,5.14
2022-11-29T20:50:59.622Z,5.26
2022-11-29T20:52:57.648Z,5.2
2022-11-29T20:54:57.547Z,5.15
2022-11-29T20:58:14.485Z,5.35
2022-11-29T21:00:14.481Z,5.31
2022-11-29T21:02:14.521Z,5.34
2022-11-29T21:04:16.734Z,5.28
2022-11-29T21:06:14.541Z,5.33
2022-11-29T21:08:14.485Z,5.26
2022-11-29T21:10:14.465Z,5.42
2022-11-29T21:13:42.639Z,5.34
2022-11-29T21:15:42.864Z,5.51
2022-11-29T21:17:42.723Z,5.54
2022-11-29T21:19:42.648Z,5.52
2022-11-29T21:21:42.573Z,5.38
2022-11-29T21:23:42.592Z,5.1
2022-11-29T21:25:42.731Z,5.25
2022-11-29T21:28:35.158Z,5.39
2022-11-29T21:30:34.991Z,5.46
2022-11-29T21:32:35.075Z,5.48
2022-11-29T21:34:35.112Z,5.52
2022-11-29T21:36:35.164Z,5.45
2022-11-29T21:38:36.659Z,5.37
2022-11-29T21:40:35.011Z,5.19
2022-11-29T21:43:50.473Z,5.03
2022-11-29T21:45:27.606Z,5.15
2022-11-29T21:47:27.612Z,5.12
2022-11-29T21:49:27.666Z,5.22
2022-11-29T21:51:27.672Z,5.21
2022-11-29T21:53:27.620Z,5.23
2022-11-29T21:55:31.948Z,5.15
2022-11-29T21:58:50.155Z,5.01
2022-11-29T22:00:50.192Z,5.04
2022-11-29T22:02:50.172Z,4.96
2022-11-29T22:04:50.057Z,5.09
2022-11-29T22:06:50.065Z,5.08
2022-11-29T22:08:50.098Z,5.02
2022-11-29T22:10:50.035Z,5.19
2022-11-29T22:14:27.073Z,5.15
2022-11-29T22:16:27.110Z,5.19
2022-11-29T22:18:27.041Z,5.27
2022-11-29T22:20:27.284Z,5.29
2022-11-29T22:22:28.332Z,5.26
2022-11-29T22:24:27.098Z,5.39
2022-11-29T22:26:27.190Z,5.41
2022-11-29T22:29:42.917Z,5.02
2022-11-29T22:31:42.940Z,4.94
2022-11-29T22:33:42.881Z,4.89
2022-11-29T22:35:42.871Z,4.96
2022-11-29T22:37:42.941Z,5.02
2022-11-29T22:39:42.873Z,5.25
2022-11-29T22:41:42.887Z,5.24
2022-11-29T22:44:14.398Z,5.12
2022-11-29T22:46:14.477Z,4.8
2022-11-29T22:48:14.390Z,4.84
2022-11-29T22:50:14.357Z,4.97
2022-11-29T22:52:14.391Z,5.15
2022-11-29T22:54:14.362Z,5.2
2022-11-29T22:56:14.372Z,5.17
2022-11-29T22:59:11.117Z,5.24
2022-11-29T23:01:11.177Z,5.3
2022-11-29T23:03:11.103Z,5.33
2022-11-29T23:05:11.149Z,5.28
2022-11-29T23:07:11.116Z,5.05
2022-11-29T23:09:11.126Z,5.09
2022-11-29T23:11:11.132Z,5.2
2022-11-29T23:13:11.085Z,5.24
2022-11-29T23:14:39.059Z,5
2022-11-29T23:16:39.191Z,5.09
2022-11-29T23:18:39.037Z,5.18
2022-11-29T23:20:39.058Z,5.04
2022-11-29T23:22:39.096Z,5.13
2022-11-29T23:24:39.035Z,5.14
2022-11-29T23:26:39.124Z,5.03
2022-11-29T23:29:29.642Z,5.11
2022-11-29T23:31:29.753Z,5.19
2022-11-29T23:33:29.658Z,5.23
2022-11-29T23:35:29.649Z,5.24
2022-11-29T23:37:29.663Z,5.21
2022-11-29T23:39:29.654Z,5.26
2022-11-29T23:41:29.654Z,5.21
2022-11-29T23:43:29.677Z,5.12
2022-11-29T23:45:03.334Z,5.15
2022-11-29T23:47:03.312Z,5.2
2022-11-29T23:49:03.295Z,5.15
2022-11-29T23:51:03.280Z,5.08
2022-11-29T23:53:03.294Z,5.19
2022-11-29T23:55:03.327Z,5.3
2022-11-29T23:57:03.281Z,5.43
